Time;durP1;ratioP1;P1;durP2;ratioP2;P2;SDS_P1;SDS_P2;PMS_P1;PMS_P2;Temp;Humidity;BMP_temperature;BMP_pressure;BME280_temperature;BME280_humidity;BME280_pressure;Samples;Min_cycle;Max_cycle;Signal;HPM_P1;HPM_P2
2021/01/09 00:04:40;;;;;;;2.10;1.70;;;16.20;63.20;;;;;;10513567;28;20449;-60
2021/01/09 00:09:41;;;;;;;1.65;1.20;;;16.20;63.10;;;;;;10496604;28;20521;-60
2021/01/09 00:14:42;;;;;;;2.95;1.50;;;16.20;63.10;;;;;;10497379;28;20077;-60
2021/01/09 00:19:43;;;;;;;3.65;1.83;;;16.20;63.20;;;;;;10496264;28;20491;-60
2021/01/09 00:24:43;;;;;;;4.38;1.80;;;16.20;63.10;;;;;;10482986;28;20085;-61
2021/01/09 00:29:45;;;;;;;2.15;1.40;;;16.20;63.20;;;;;;10497213;28;20048;-61
2021/01/09 00:34:46;;;;;;;2.58;1.60;;;16.10;63.10;;;;;;10497176;28;20067;-60
2021/01/09 00:39:47;;;;;;;2.45;1.30;;;16.10;63.20;;;;;;10496949;28;20024;-61
2021/01/09 00:44:47;;;;;;;3.40;1.40;;;16.10;63.20;;;;;;10497182;28;20021;-61
2021/01/09 00:49:48;;;;;;;3.30;1.52;;;16.00;63.10;;;;;;10496694;28;20439;-61
2021/01/09 00:54:49;;;;;;;3.05;1.25;;;16.00;63.10;;;;;;10496506;28;20388;-60
2021/01/09 00:59:50;;;;;;;2.35;1.30;;;16.00;63.20;;;;;;10496616;28;20100;-60
2021/01/09 01:04:51;;;;;;;1.48;1.10;;;16.00;63.10;;;;;;10496584;28;20033;-60
2021/01/09 01:09:52;;;;;;;3.30;1.70;;;15.90;63.00;;;;;;10496570;28;20544;-60
2021/01/09 01:14:52;;;;;;;3.67;1.83;;;15.90;63.10;;;;;;10495003;28;20404;-60
2021/01/09 01:19:53;;;;;;;1.60;1.42;;;15.90;63.00;;;;;;10495920;28;20064;-60
2021/01/09 01:24:54;;;;;;;1.98;1.30;;;15.90;63.10;;;;;;10495047;28;20477;-60
2021/01/09 01:29:54;;;;;;;2.80;1.50;;;15.90;63.10;;;;;;10504197;28;20528;-60
2021/01/09 01:34:55;;;;;;;2.63;1.55;;;15.90;63.10;;;;;;10503920;28;20111;-60
2021/01/09 01:39:56;;;;;;;2.78;1.70;;;15.80;63.00;;;;;;10503742;28;20036;-61
2021/01/09 01:44:56;;;;;;;3.10;1.65;;;15.80;63.00;;;;;;10503757;28;20059;-60
2021/01/09 01:49:57;;;;;;;3.53;2.15;;;15.80;63.00;;;;;;10502163;28;20157;-61
2021/01/09 01:54:58;;;;;;;3.05;1.52;;;15.80;65.60;;;;;;10502261;28;20025;-61
2021/01/09 01:59:59;;;;;;;2.42;1.30;;;15.90;68.60;;;;;;10502978;28;20060;-60
2021/01/09 02:05:03;;;;;;;2.53;1.63;;;15.90;67.90;;;;;;10502645;28;20024;-60
2021/01/09 02:10:06;;;;;;;3.10;2.05;;;15.90;67.60;;;;;;10502595;28;20025;-61
2021/01/09 02:15:08;;;;;;;3.47;1.67;;;15.90;67.20;;;;;;10501032;28;20025;-61
2021/01/09 02:20:09;;;;;;;3.08;1.63;;;15.80;67.00;;;;;;10500897;28;20559;-61
2021/01/09 02:25:13;;;;;;;2.70;1.40;;;15.80;66.80;;;;;;10484289;28;20477;-61
2021/01/09 02:30:21;;;;;;;2.58;1.52;;;15.80;66.60;;;;;;10501973;28;20859;-61
2021/01/09 02:35:24;;;;;;;1.92;1.55;;;15.80;66.40;;;;;;10495840;28;20078;-60
2021/01/09 02:40:25;;;;;;;1.83;1.40;;;15.70;66.10;;;;;;10500900;28;20028;-61
2021/01/09 02:45:25;;;;;;;3.00;1.70;;;15.70;66.00;;;;;;10500441;28;20499;-60
2021/01/09 02:50:26;;;;;;;2.40;1.70;;;15.70;65.90;;;;;;10500733;28;20552;-61
2021/01/09 02:55:27;;;;;;;2.10;1.52;;;15.70;65.90;;;;;;10500791;28;20492;-61
2021/01/09 03:00:28;;;;;;;2.22;1.48;;;15.70;65.80;;;;;;10500718;28;20437;-61
2021/01/09 03:05:28;;;;;;;2.53;1.60;;;15.60;65.60;;;;;;10500652;28;20047;-60
2021/01/09 03:10:29;;;;;;;2.70;1.92;;;15.60;65.60;;;;;;10500369;28;20024;-60
2021/01/09 03:15:30;;;;;;;2.58;1.55;;;15.60;65.50;;;;;;10499804;28;20056;-60
2021/01/09 03:20:30;;;;;;;2.38;1.63;;;15.50;65.30;;;;;;10499565;28;20510;-60
2021/01/09 03:25:31;;;;;;;2.38;1.55;;;15.60;65.30;;;;;;10499718;28;20535;-61
2021/01/09 03:30:32;;;;;;;2.45;1.67;;;15.50;65.20;;;;;;10514862;28;20071;-60
2021/01/09 03:35:32;;;;;;;2.15;1.48;;;15.50;65.10;;;;;;10499305;28;20162;-61
2021/01/09 03:40:33;;;;;;;2.58;1.85;;;15.50;65.10;;;;;;10498860;28;20070;-61
2021/01/09 03:45:34;;;;;;;2.50;1.48;;;15.50;65.00;;;;;;10498915;28;20036;-60
2021/01/09 03:50:34;;;;;;;2.95;1.90;;;15.40;65.00;;;;;;10497968;28;20082;-60
2021/01/09 03:55:35;;;;;;;2.42;1.63;;;15.40;64.90;;;;;;10498506;28;20051;-60
2021/01/09 04:00:36;;;;;;;3.08;1.75;;;15.40;64.90;;;;;;10493588;28;20430;-60
2021/01/09 04:05:37;;;;;;;2.55;1.58;;;15.40;64.80;;;;;;10496471;28;20029;-60
2021/01/09 04:10:37;;;;;;;1.90;1.35;;;15.40;64.80;;;;;;10497943;28;20060;-60
2021/01/09 04:15:38;;;;;;;2.35;1.40;;;15.30;64.60;;;;;;10497695;28;20445;-61
2021/01/09 04:20:39;;;;;;;2.40;1.67;;;15.30;64.50;;;;;;10496249;28;20124;-61
2021/01/09 04:25:39;;;;;;;2.40;1.50;;;15.30;64.50;;;;;;10497502;28;20067;-60
2021/01/09 04:30:40;;;;;;;2.28;1.40;;;15.30;64.40;;;;;;10497280;28;20028;-61
2021/01/09 04:35:41;;;;;;;3.72;1.95;;;15.20;64.30;;;;;;10497285;28;20115;-61
2021/01/09 04:40:41;;;;;;;3.58;1.98;;;15.20;64.30;;;;;;10497118;28;20028;-60
2021/01/09 04:45:45;;;;;;;2.55;2.00;;;15.20;64.20;;;;;;10496686;28;20028;-60
2021/01/09 04:50:50;;;;;;;2.70;1.70;;;15.20;64.10;;;;;;10496699;28;20021;-60
2021/01/09 04:55:52;;;;;;;2.40;1.58;;;15.20;64.10;;;;;;10496590;28;20036;-61
2021/01/09 05:00:55;;;;;;;2.72;2.05;;;15.10;64.10;;;;;;10495570;28;20583;-61
2021/01/09 05:05:56;;;;;;;3.22;2.25;;;15.10;64.00;;;;;;10496729;28;20038;-61
2021/01/09 05:10:57;;;;;;;3.17;1.98;;;15.10;64.00;;;;;;10496471;28;20100;-61
2021/01/09 05:15:58;;;;;;;2.92;2.22;;;15.10;64.00;;;;;;10496254;28;20107;-60
2021/01/09 05:20:59;;;;;;;3.58;2.30;;;15.10;63.90;;;;;;10495027;28;20131;-61
2021/01/09 05:26:00;;;;;;;2.78;1.83;;;15.00;63.80;;;;;;10495015;28;20495;-61
2021/01/09 05:31:02;;;;;;;2.97;1.80;;;15.00;63.80;;;;;;10496025;28;20021;-60
2021/01/09 05:36:04;;;;;;;2.97;2.00;;;15.00;63.70;;;;;;10495878;28;20024;-61
2021/01/09 05:41:12;;;;;;;2.38;1.67;;;15.00;63.70;;;;;;10496139;28;20028;-61
2021/01/09 05:46:14;;;;;;;3.05;2.00;;;15.00;63.70;;;;;;10496204;28;20036;-60
2021/01/09 05:51:16;;;;;;;3.60;2.05;;;15.10;63.60;;;;;;10494463;28;20028;-61
2021/01/09 05:56:20;;;;;;;3.58;2.20;;;15.20;63.50;;;;;;10494232;28;20028;-61
2021/01/09 06:01:27;;;;;;;2.53;1.60;;;15.40;63.10;;;;;;10495562;28;20056;-61
2021/01/09 06:07:05;;;;;;;2.15;1.85;;;15.60;62.30;;;;;;10495034;28;20041;-60
2021/01/09 06:12:07;;;;;;;3.00;1.80;;;15.90;61.60;;;;;;10465437;28;20094;-61
2021/01/09 06:17:10;;;;;;;3.70;2.05;;;16.00;61.30;;;;;;10501263;28;20118;-61
2021/01/09 06:22:11;;;;;;;2.33;1.67;;;16.10;61.00;;;;;;10491509;28;20383;-61
2021/01/09 06:27:27;;;;;;;2.38;1.85;;;16.30;60.60;;;;;;10463343;28;20162;-61
2021/01/09 06:32:32;;;;;;;3.90;2.33;;;16.40;60.30;;;;;;10460833;28;20029;-61
2021/01/09 06:37:34;;;;;;;2.58;1.83;;;16.50;60.00;;;;;;10507632;28;20108;-60
2021/01/09 06:42:38;;;;;;;3.28;1.95;;;16.60;59.90;;;;;;10501133;28;20024;-61
2021/01/09 06:47:39;;;;;;;3.13;1.85;;;16.70;59.60;;;;;;10499905;28;20468;-61
2021/01/09 06:53:00;;;;;;;2.38;1.73;;;16.80;59.50;;;;;;10478813;28;20108;-61
2021/01/09 06:58:01;;;;;;;3.55;2.00;;;16.90;59.00;;;;;;10495659;28;20028;-61
2021/01/09 07:03:14;;;;;;;3.88;1.88;;;16.90;59.10;;;;;;10499406;28;20104;-61
2021/01/09 07:08:35;;;;;;;2.58;1.80;;;17.00;58.70;;;;;;10499658;28;20374;-62
2021/01/09 07:13:36;;;;;;;2.50;1.65;;;17.20;58.40;;;;;;10492251;28;20032;-61
2021/01/09 07:18:49;;;;;;;2.50;1.77;;;17.10;58.50;;;;;;10486738;28;20392;-62
2021/01/09 07:23:53;;;;;;;6.95;2.08;;;17.20;58.40;;;;;;10488558;28;20075;-61
2021/01/09 07:28:54;;;;;;;5.32;2.20;;;17.30;58.70;;;;;;10475219;28;20078;-58
2021/01/09 07:33:59;;;;;;;5.63;2.15;;;17.20;59.10;;;;;;10483251;28;20477;-59
2021/01/09 07:39:05;;;;;;;10.00;2.47;;;17.40;59.50;;;;;;10461104;28;20027;-61
2021/01/09 07:44:20;;;;;;;6.03;2.28;;;17.50;59.30;;;;;;10481986;28;20801;-60
2021/01/09 07:49:29;;;;;;;3.50;2.20;;;17.60;60.20;;;;;;10496239;28;20465;-61
2021/01/09 07:54:47;;;;;;;5.53;2.10;;;17.70;59.20;;;;;;10498081;28;20033;-60
2021/01/09 07:59:53;;;;;;;4.93;2.08;;;17.80;59.10;;;;;;10498244;28;20056;-62
2021/01/09 08:05:21;;;;;;;5.60;1.98;;;17.80;58.50;;;;;;10492031;28;20036;-61
2021/01/09 08:10:26;;;;;;;8.02;1.95;;;17.80;58.20;;;;;;10492777;28;20447;-61
2021/01/09 08:15:29;;;;;;;3.40;2.10;;;17.70;58.40;;;;;;10489471;28;20020;-60
2021/01/09 08:20:31;;;;;;;4.93;2.58;;;17.60;58.50;;;;;;10496777;28;20094;-58
2021/01/09 08:25:35;;;;;;;5.85;2.17;;;17.60;58.70;;;;;;10494826;28;20036;-60
2021/01/09 08:30:39;;;;;;;7.88;2.50;;;17.50;59.40;;;;;;10496620;28;20386;-63
2021/01/09 08:35:47;;;;;;;11.45;3.15;;;17.50;59.30;;;;;;10494842;28;20031;-61
2021/01/09 08:40:57;;;;;;;9.93;3.15;;;17.50;59.10;;;;;;10497008;28;20032;-62
2021/01/09 08:45:58;;;;;;;12.38;2.75;;;17.50;58.90;;;;;;10487768;28;20054;-61
2021/01/09 08:51:03;;;;;;;13.07;3.67;;;17.50;59.20;;;;;;10496671;28;20056;-60
2021/01/09 08:56:04;;;;;;;11.60;2.80;;;17.50;58.90;;;;;;10493730;28;20074;-60
2021/01/09 09:01:13;;;;;;;14.82;3.63;;;17.40;58.50;;;;;;10494897;28;20033;-60
2021/01/09 09:06:16;;;;;;;10.95;2.95;;;17.50;57.80;;;;;;10496523;28;20037;-59
2021/01/09 09:11:16;;;;;;;10.10;3.90;;;17.50;57.80;;;;;;10496271;28;20089;-59
2021/01/09 09:16:22;;;;;;;8.95;3.20;;;17.50;57.80;;;;;;10496373;28;20032;-59
2021/01/09 09:21:26;;;;;;;6.57;3.60;;;17.50;57.70;;;;;;10495523;28;20052;-59
2021/01/09 09:26:31;;;;;;;8.75;3.50;;;17.50;57.70;;;;;;10494830;28;20048;-59
2021/01/09 09:31:44;;;;;;;6.03;3.35;;;17.50;58.20;;;;;;10495607;28;20028;-59
2021/01/09 09:36:50;;;;;;;7.45;3.00;;;17.50;57.50;;;;;;10489078;28;20120;-59
2021/01/09 09:42:00;;;;;;;6.68;2.85;;;17.50;57.70;;;;;;10493037;28;20033;-59
2021/01/09 09:47:03;;;;;;;5.85;3.38;;;17.40;57.70;;;;;;10495485;28;20071;-59
2021/01/09 09:52:21;;;;;;;5.88;2.75;;;17.50;57.90;;;;;;10501750;28;20029;-59
2021/01/09 09:57:23;;;;;;;3.97;2.50;;;17.60;57.70;;;;;;10503110;28;20025;-60
2021/01/09 10:02:23;;;;;;;9.15;3.30;;;17.60;57.60;;;;;;10502590;28;20057;-60
2021/01/09 10:07:25;;;;;;;9.45;3.47;;;17.40;57.70;;;;;;10502514;28;20560;-60
2021/01/09 10:12:25;;;;;;;4.88;2.58;;;17.40;58.00;;;;;;10501104;28;20037;-60
2021/01/09 10:17:27;;;;;;;6.82;2.90;;;17.40;58.00;;;;;;10501954;28;20386;-60
2021/01/09 10:22:27;;;;;;;5.45;3.17;;;17.30;58.00;;;;;;10502223;28;20064;-59
2021/01/09 10:27:28;;;;;;;5.13;2.60;;;17.30;58.00;;;;;;10501888;28;20410;-59
2021/01/09 10:32:29;;;;;;;3.97;2.17;;;17.30;58.00;;;;;;10501381;28;20112;-59
2021/01/09 10:37:29;;;;;;;2.85;1.90;;;17.30;58.10;;;;;;10501553;28;20115;-59
2021/01/09 10:42:30;;;;;;;5.82;2.40;;;17.30;58.10;;;;;;10502008;28;20032;-60
2021/01/09 10:47:31;;;;;;;10.45;2.42;;;17.40;58.10;;;;;;10501165;28;20033;-59
2021/01/09 10:52:32;;;;;;;5.03;3.08;;;17.20;58.60;;;;;;10499313;28;20104;-60
2021/01/09 10:57:33;;;;;;;11.75;2.85;;;17.20;59.60;;;;;;10500460;28;20028;-60
2021/01/09 11:02:33;;;;;;;8.75;3.35;;;17.10;59.40;;;;;;10499684;28;20141;-60
2021/01/09 11:07:34;;;;;;;8.38;3.05;;;17.00;61.10;;;;;;10499523;28;20111;-60
2021/01/09 11:12:35;;;;;;;9.07;2.92;;;17.00;61.50;;;;;;10500185;28;20063;-61
2021/01/09 11:17:35;;;;;;;8.18;2.95;;;16.90;61.20;;;;;;10498740;28;20021;-61
2021/01/09 11:22:36;;;;;;;10.48;3.70;;;16.90;61.40;;;;;;10499775;28;20025;-59
2021/01/09 11:27:37;;;;;;;12.00;3.40;;;17.00;61.20;;;;;;10499678;28;20056;-60
2021/01/09 11:32:37;;;;;;;10.30;3.05;;;17.00;61.20;;;;;;10499557;28;20155;-58
2021/01/09 11:37:38;;;;;;;9.90;3.13;;;17.20;61.30;;;;;;10499112;28;20376;-58
2021/01/09 11:42:39;;;;;;;9.52;2.70;;;17.30;61.40;;;;;;10514546;28;20032;-60
2021/01/09 11:47:39;;;;;;;12.52;3.00;;;17.40;62.40;;;;;;10497087;28;20028;-59
2021/01/09 11:52:41;;;;;;;6.30;2.45;;;17.30;62.60;;;;;;10497419;28;20024;-59
2021/01/09 11:57:41;;;;;;;8.25;3.10;;;17.30;62.00;;;;;;10494298;28;20028;-60
2021/01/09 12:02:42;;;;;;;11.15;3.13;;;17.30;62.30;;;;;;10461333;28;20394;-60
2021/01/09 12:07:43;;;;;;;14.85;3.97;;;17.30;62.60;;;;;;10486901;28;20476;-60
2021/01/09 12:12:43;;;;;;;9.95;3.28;;;17.20;62.70;;;;;;10497300;28;20510;-60
2021/01/09 12:17:44;;;;;;;10.02;2.47;;;17.10;62.70;;;;;;10495510;28;20059;-60
2021/01/09 12:22:45;;;;;;;8.35;2.47;;;17.00;62.90;;;;;;10489137;28;20067;-60
2021/01/09 12:27:45;;;;;;;6.40;2.90;;;17.00;62.90;;;;;;10462827;28;20035;-59
2021/01/09 12:32:46;;;;;;;7.68;2.38;;;17.00;62.80;;;;;;10485713;28;20063;-58
2021/01/09 12:37:47;;;;;;;9.15;2.83;;;17.00;63.40;;;;;;10496830;28;20056;-58
2021/01/09 12:42:48;;;;;;;11.27;2.83;;;16.90;63.70;;;;;;10497276;28;20028;-59
2021/01/09 12:47:49;;;;;;;13.45;2.65;;;16.90;64.40;;;;;;10496935;28;20028;-58
2021/01/09 12:52:49;;;;;;;9.55;2.95;;;16.80;64.00;;;;;;10496836;28;20032;-59
2021/01/09 12:57:50;;;;;;;10.18;2.80;;;16.80;64.20;;;;;;10495573;28;20044;-57
2021/01/09 13:02:51;;;;;;;9.43;3.13;;;16.80;63.90;;;;;;10496646;28;20532;-58
2021/01/09 13:07:51;;;;;;;11.73;3.10;;;16.80;63.80;;;;;;10492763;28;20093;-61
2021/01/09 13:12:52;;;;;;;8.77;2.65;;;16.80;63.40;;;;;;10496267;28;20463;-60
2021/01/09 13:17:53;;;;;;;13.38;2.78;;;17.00;62.70;;;;;;10495584;28;20127;-58
2021/01/09 13:22:53;;;;;;;11.70;2.47;;;17.10;61.90;;;;;;10468268;28;20025;-60
2021/01/09 13:27:54;;;;;;;12.52;2.78;;;17.30;61.50;;;;;;10491133;28;20120;-59
2021/01/09 13:32:55;;;;;;;11.57;3.05;;;17.40;61.00;;;;;;10496253;28;20111;-60
2021/01/09 13:37:55;;;;;;;10.43;1.80;;;17.50;61.00;;;;;;10503363;28;20357;-59
2021/01/09 13:42:56;;;;;;;9.05;2.58;;;17.50;60.50;;;;;;10502840;28;20126;-60
2021/01/09 13:47:57;;;;;;;5.03;1.90;;;17.50;60.60;;;;;;10503402;28;20480;-60
2021/01/09 13:52:57;;;;;;;4.50;2.05;;;17.50;60.50;;;;;;10503135;28;20385;-60
2021/01/09 13:57:58;;;;;;;9.73;2.65;;;17.50;60.40;;;;;;10500279;28;20111;-60
2021/01/09 14:02:59;;;;;;;3.83;1.95;;;17.50;60.20;;;;;;10500309;28;20099;-60
2021/01/09 14:08:00;;;;;;;9.63;2.22;;;17.60;60.10;;;;;;10500951;28;20031;-59
2021/01/09 14:13:01;;;;;;;6.78;2.30;;;17.60;59.90;;;;;;10500108;28;20469;-59
2021/01/09 14:18:01;;;;;;;6.32;1.80;;;17.70;59.80;;;;;;10501558;28;20043;-60
2021/01/09 14:23:02;;;;;;;5.38;1.77;;;17.70;59.60;;;;;;10501779;28;20434;-60
2021/01/09 14:28:03;;;;;;;12.93;2.72;;;17.70;59.80;;;;;;10500776;28;20024;-60
2021/01/09 14:33:04;;;;;;;9.65;4.07;;;17.60;58.40;;;;;;10494690;28;20032;-59
2021/01/09 14:38:05;;;;;;;10.30;2.78;;;17.60;58.90;;;;;;10500827;28;20389;-58
2021/01/09 14:43:07;;;;;;;8.95;2.55;;;17.60;59.50;;;;;;10494108;28;20033;-59
2021/01/09 14:48:09;;;;;;;14.05;2.83;;;17.70;60.10;;;;;;10500044;28;20036;-58
2021/01/09 14:53:10;;;;;;;11.02;3.15;;;17.70;60.50;;;;;;10500316;28;20048;-58
2021/01/09 14:58:11;;;;;;;12.95;3.45;;;17.70;60.60;;;;;;10499366;28;20123;-59
2021/01/09 15:03:12;;;;;;;15.25;3.65;;;17.80;61.00;;;;;;10490113;28;20115;-58
2021/01/09 15:08:14;;;;;;;14.98;3.38;;;17.80;61.30;;;;;;10500458;28;20115;-58
2021/01/09 15:13:15;;;;;;;11.23;3.38;;;17.80;61.60;;;;;;10500278;28;20075;-58
2021/01/09 15:24:04;;;;;;;15.30;2.85;;;17.90;61.60;;;;;;10487807;28;20506;-58
2021/01/09 15:29:06;;;;;;;8.88;3.05;;;17.90;62.60;;;;;;10498870;28;20049;-59
2021/01/09 15:34:08;;;;;;;15.85;3.72;;;18.00;62.20;;;;;;10495665;28;20036;-59
2021/01/09 15:39:15;;;;;;;9.88;3.50;;;18.00;62.80;;;;;;10485540;28;20086;-62
2021/01/09 15:44:16;;;;;;;8.98;2.63;;;17.90;62.70;;;;;;10495444;28;20063;-60
2021/01/09 15:49:17;;;;;;;17.45;4.10;;;17.90;62.60;;;;;;10498425;28;20504;-59
2021/01/09 15:54:19;;;;;;;16.02;4.40;;;17.90;62.80;;;;;;10498468;28;20051;-59
2021/01/09 15:59:19;;;;;;;15.98;5.65;;;17.90;62.90;;;;;;10491598;28;20029;-60
2021/01/09 16:04:20;;;;;;;16.58;7.10;;;17.90;63.20;;;;;;10497838;28;20512;-60
2021/01/09 16:09:27;;;;;;;18.33;7.88;;;18.00;63.30;;;;;;10574735;27;20388;-58
2021/01/09 16:14:27;;;;;;;17.23;10.50;;;18.00;63.70;;;;;;10526737;28;20024;-59
2021/01/09 16:19:28;;;;;;;16.83;12.30;;;18.00;63.90;;;;;;10532149;28;20103;-59
2021/01/09 16:24:29;;;;;;;18.58;12.13;;;18.00;64.20;;;;;;10524637;28;20030;-59
2021/01/09 16:29:30;;;;;;;19.65;12.82;;;18.00;63.90;;;;;;10526259;28;20107;-59
2021/01/09 16:34:30;;;;;;;14.38;12.23;;;18.00;64.10;;;;;;10528514;28;20025;-60
2021/01/09 16:39:31;;;;;;;14.32;11.93;;;18.00;64.30;;;;;;10528265;28;20023;-59
2021/01/09 16:44:32;;;;;;;16.75;11.07;;;18.10;64.90;;;;;;10517680;28;20103;-62
2021/01/09 16:49:32;;;;;;;17.40;12.38;;;18.00;66.30;;;;;;10527522;28;20032;-60
2021/01/09 16:54:33;;;;;;;32.28;24.15;;;17.90;68.10;;;;;;10524449;28;20488;-57
2021/01/09 16:59:34;;;;;;;23.38;14.98;;;18.00;70.70;;;;;;10528328;28;20085;-62
2021/01/09 17:04:34;;;;;;;15.48;12.95;;;18.00;65.10;;;;;;10529479;28;20030;-62
2021/01/09 17:09:35;;;;;;;15.95;13.07;;;18.20;68.50;;;;;;10530029;28;20111;-58
2021/01/09 17:14:36;;;;;;;15.02;12.45;;;18.20;67.10;;;;;;10530700;28;20050;-59
2021/01/09 17:19:36;;;;;;;20.77;11.68;;;18.20;66.20;;;;;;10509144;28;20492;-62
2021/01/09 17:24:37;;;;;;;15.95;11.63;;;18.20;66.00;;;;;;10487440;28;20104;-62
2021/01/09 17:29:38;;;;;;;14.25;11.50;;;18.20;65.70;;;;;;10484649;28;20025;-60
2021/01/09 17:34:39;;;;;;;18.90;11.02;;;18.20;65.00;;;;;;10485278;28;20547;-61
2021/01/09 17:39:40;;;;;;;13.57;9.88;;;18.20;64.80;;;;;;10479920;28;20059;-59
2021/01/09 17:44:41;;;;;;;12.45;9.27;;;18.30;64.30;;;;;;10485646;28;20651;-60
2021/01/09 17:49:42;;;;;;;15.05;9.73;;;18.30;64.00;;;;;;10491508;28;20036;-59
2021/01/09 17:54:43;;;;;;;12.48;9.40;;;18.30;63.70;;;;;;10497568;28;20024;-60
2021/01/09 17:59:43;;;;;;;12.10;9.40;;;18.30;63.80;;;;;;10487087;28;20053;-59
2021/01/09 18:04:44;;;;;;;15.82;8.73;;;18.30;63.60;;;;;;10478722;28;20028;-60
2021/01/09 18:09:45;;;;;;;11.10;9.40;;;18.30;63.50;;;;;;10497900;28;20090;-59
2021/01/09 18:14:45;;;;;;;9.05;8.02;;;18.30;63.10;;;;;;10499077;28;20056;-59
2021/01/09 18:19:46;;;;;;;11.77;8.40;;;18.30;63.00;;;;;;10515745;28;20035;-58
2021/01/09 18:24:47;;;;;;;9.63;6.95;;;18.30;62.80;;;;;;10491935;28;20107;-58
2021/01/09 18:29:49;;;;;;;11.80;8.68;;;18.20;62.60;;;;;;10479888;28;20103;-58
2021/01/09 18:34:50;;;;;;;10.70;7.80;;;18.10;62.70;;;;;;10486239;28;20036;-58
2021/01/09 18:39:51;;;;;;;13.80;7.63;;;18.10;62.70;;;;;;10492031;28;20056;-58
2021/01/09 18:44:52;;;;;;;9.52;6.63;;;18.00;62.70;;;;;;10481960;28;20025;-57
2021/01/09 18:49:53;;;;;;;11.65;6.70;;;18.00;63.60;;;;;;10479631;28;20466;-57
2021/01/09 18:54:54;;;;;;;11.18;6.28;;;17.90;62.90;;;;;;10477072;28;20058;-59
2021/01/09 18:59:55;;;;;;;12.75;6.68;;;17.90;63.10;;;;;;10463979;28;20128;-59
2021/01/09 19:04:55;;;;;;;11.10;6.03;;;17.90;63.10;;;;;;10463030;28;20044;-57
2021/01/09 19:09:56;;;;;;;9.55;5.65;;;18.00;63.30;;;;;;10496403;28;20056;-58
2021/01/09 19:14:58;;;;;;;9.18;6.13;;;18.00;63.10;;;;;;10497792;28;20138;-57
2021/01/09 19:19:59;;;;;;;9.60;5.20;;;17.90;63.20;;;;;;10497766;28;20059;-57
2021/01/09 19:24:59;;;;;;;7.72;6.25;;;17.90;63.40;;;;;;10497627;28;20524;-59
2021/01/09 19:30:00;;;;;;;6.90;4.88;;;17.90;63.40;;;;;;10515937;28;20544;-58
2021/01/09 19:35:01;;;;;;;7.80;4.93;;;17.90;63.40;;;;;;10499000;28;20384;-59
2021/01/09 19:40:05;;;;;;;7.38;5.53;;;18.00;63.40;;;;;;10496834;28;20039;-58
2021/01/09 19:45:11;;;;;;;6.20;4.03;;;18.00;63.40;;;;;;10495891;28;20445;-57
2021/01/09 19:50:14;;;;;;;9.20;4.85;;;18.00;63.40;;;;;;10496835;28;20024;-59
2021/01/09 19:55:14;;;;;;;6.75;4.15;;;17.90;63.60;;;;;;10496625;28;20039;-60
2021/01/09 20:00:18;;;;;;;7.20;4.20;;;17.90;63.30;;;;;;10496649;28;20103;-62
2021/01/09 20:05:19;;;;;;;6.20;4.38;;;18.00;63.40;;;;;;10495128;28;20122;-61
2021/01/09 20:10:21;;;;;;;7.07;4.25;;;17.90;63.40;;;;;;10496461;28;20025;-61
2021/01/09 20:15:22;;;;;;;7.05;4.05;;;17.90;63.50;;;;;;10496582;28;20044;-60
2021/01/09 20:20:22;;;;;;;6.43;4.32;;;17.90;63.70;;;;;;10496540;28;20024;-60
2021/01/09 20:25:24;;;;;;;9.52;4.47;;;17.80;63.60;;;;;;10485479;28;20025;-59
2021/01/09 20:30:25;;;;;;;5.38;4.28;;;17.80;63.50;;;;;;10465726;28;20025;-59
2021/01/09 20:35:25;;;;;;;5.40;3.50;;;17.60;63.50;;;;;;10484328;28;20032;-60
2021/01/09 20:40:26;;;;;;;6.88;4.10;;;17.50;63.70;;;;;;10491738;28;20484;-59
2021/01/09 20:45:27;;;;;;;5.57;3.88;;;17.40;63.70;;;;;;10507113;28;20029;-59
2021/01/09 20:50:30;;;;;;;5.03;3.40;;;17.30;63.80;;;;;;10491894;28;20414;-59
2021/01/09 20:55:31;;;;;;;5.82;3.50;;;17.20;63.90;;;;;;10498000;28;20025;-58
2021/01/09 21:00:32;;;;;;;5.97;3.97;;;17.20;63.90;;;;;;10499395;28;20551;-59
2021/01/09 21:05:33;;;;;;;5.80;3.33;;;17.10;63.80;;;;;;10499577;28;20111;-59
2021/01/09 21:10:34;;;;;;;6.00;3.25;;;17.10;63.80;;;;;;10502884;28;20103;-58
2021/01/09 21:15:34;;;;;;;3.80;3.38;;;17.00;63.90;;;;;;10502533;28;20052;-59
2021/01/09 21:20:35;;;;;;;5.95;3.45;;;16.90;63.90;;;;;;10502566;28;20444;-59
2021/01/09 21:25:36;;;;;;;6.00;3.65;;;16.80;63.90;;;;;;10500805;28;20040;-59
2021/01/09 21:30:37;;;;;;;5.65;3.85;;;16.80;63.90;;;;;;10507816;28;20531;-59
2021/01/09 21:35:37;;;;;;;5.25;3.78;;;16.70;63.80;;;;;;10492804;28;20357;-59
2021/01/09 21:40:38;;;;;;;3.70;2.97;;;16.70;63.80;;;;;;10501560;28;20032;-58
2021/01/09 21:45:39;;;;;;;6.50;4.07;;;16.60;63.80;;;;;;10500629;28;20025;-59
2021/01/09 21:50:39;;;;;;;5.57;3.67;;;16.60;63.70;;;;;;10500961;28;20416;-58
2021/01/09 21:55:40;;;;;;;5.85;3.58;;;16.60;63.70;;;;;;10500980;28;20115;-58
2021/01/09 22:00:41;;;;;;;6.00;3.38;;;16.50;63.60;;;;;;10500994;28;20385;-59
2021/01/09 22:05:41;;;;;;;4.47;3.13;;;16.40;63.60;;;;;;10500288;28;20132;-58
2021/01/09 22:10:42;;;;;;;4.05;3.15;;;16.40;63.50;;;;;;10500603;28;20020;-58
2021/01/09 22:15:43;;;;;;;5.22;3.47;;;16.30;63.50;;;;;;10500319;28;20120;-58
2021/01/09 22:20:43;;;;;;;4.88;3.42;;;16.30;63.60;;;;;;10500054;28;20500;-58
2021/01/09 22:25:44;;;;;;;4.85;3.10;;;16.30;63.70;;;;;;10499797;28;20060;-58
2021/01/09 22:30:45;;;;;;;7.20;3.78;;;16.20;63.60;;;;;;10505324;28;20032;-58
2021/01/09 22:35:45;;;;;;;4.53;3.08;;;16.20;63.60;;;;;;10499617;28;20067;-59
2021/01/09 22:40:46;;;;;;;4.90;3.03;;;16.20;63.70;;;;;;10499219;28;20060;-58
2021/01/09 22:45:47;;;;;;;3.75;2.92;;;16.20;63.60;;;;;;10492755;28;20167;-58
2021/01/09 22:50:47;;;;;;;6.05;3.30;;;16.10;63.50;;;;;;10485286;28;20028;-58
2021/01/09 22:55:48;;;;;;;3.55;2.90;;;16.00;63.30;;;;;;10478020;28;20472;-58
2021/01/09 23:00:49;;;;;;;4.15;3.03;;;16.00;63.30;;;;;;10477892;28;20524;-58
2021/01/09 23:05:50;;;;;;;5.25;3.00;;;16.00;63.30;;;;;;10484298;28;20093;-58
2021/01/09 23:10:51;;;;;;;4.82;2.90;;;16.00;63.30;;;;;;10498336;28;20043;-58
2021/01/09 23:15:52;;;;;;;5.03;3.15;;;15.90;63.30;;;;;;10513117;28;20036;-58
2021/01/09 23:20:53;;;;;;;4.30;3.00;;;15.90;63.30;;;;;;10497831;28;20017;-58
2021/01/09 23:25:54;;;;;;;4.85;3.20;;;15.90;63.30;;;;;;10497518;28;20065;-58
2021/01/09 23:30:54;;;;;;;4.15;3.00;;;15.80;63.30;;;;;;10503004;28;20074;-59
2021/01/09 23:35:55;;;;;;;4.63;3.03;;;15.80;63.30;;;;;;10497361;28;20077;-58
2021/01/09 23:40:56;;;;;;;3.72;3.13;;;15.80;63.30;;;;;;10495914;28;20074;-59
2021/01/09 23:45:57;;;;;;;5.32;3.13;;;15.80;63.30;;;;;;10495498;28;20063;-58
2021/01/09 23:50:57;;;;;;;3.45;2.67;;;15.80;63.20;;;;;;10491965;28;20520;-58
2021/01/09 23:55:58;;;;;;;4.88;2.88;;;15.70;63.20;;;;;;10496868;28;20108;-58
